createdAt,value
2018-07-30T00:01:36.692Z,26.47
2018-07-30T00:04:04.408Z,26.46
2018-07-30T00:06:32.000Z,26.46
2018-07-30T00:08:59.650Z,26.43
2018-07-30T00:11:27.251Z,26.42
2018-07-30T00:13:54.843Z,26.44
2018-07-30T00:16:22.539Z,26.44
2018-07-30T00:18:50.153Z,26.44
2018-07-30T00:21:18.120Z,26.54
2018-07-30T00:23:45.782Z,26.54
2018-07-30T00:26:13.511Z,26.59
2018-07-30T00:28:41.100Z,26.60
2018-07-30T00:31:08.818Z,26.57
2018-07-30T00:33:36.441Z,26.55
2018-07-30T00:36:05.012Z,26.57
2018-07-30T00:38:32.597Z,26.54
2018-07-30T00:41:00.384Z,26.58
2018-07-30T00:43:29.116Z,26.63
2018-07-30T00:45:56.671Z,26.63
2018-07-30T00:48:24.300Z,26.71
2018-07-30T00:50:51.934Z,26.70
2018-07-30T00:53:19.559Z,26.66
2018-07-30T00:55:47.539Z,26.64
2018-07-30T00:58:16.196Z,26.70
2018-07-30T01:00:43.827Z,26.75
2018-07-30T01:03:11.425Z,26.77
2018-07-30T01:05:39.029Z,26.73
2018-07-30T01:08:07.416Z,26.71
2018-07-30T01:10:35.032Z,26.73
2018-07-30T01:13:02.624Z,26.78
2018-07-30T01:15:30.235Z,26.81
2018-07-30T01:17:57.816Z,26.73
2018-07-30T01:20:25.805Z,26.68
2018-07-30T01:22:53.408Z,26.66
2018-07-30T01:25:21.043Z,26.63
2018-07-30T01:27:48.681Z,26.70
2018-07-30T01:30:16.231Z,26.78
2018-07-30T01:32:43.868Z,26.76
2018-07-30T01:35:11.440Z,26.76
2018-07-30T01:37:39.073Z,26.74
2018-07-30T01:40:06.743Z,26.69
2018-07-30T01:42:34.388Z,26.61
2018-07-30T01:45:02.032Z,26.62
2018-07-30T01:47:29.643Z,26.68
2018-07-30T01:49:57.208Z,26.64
2018-07-30T01:52:24.792Z,26.57
2018-07-30T01:54:52.409Z,26.57
2018-07-30T01:57:19.981Z,26.56
2018-07-30T01:59:47.555Z,26.56
2018-07-30T02:02:15.218Z,26.60
2018-07-30T02:04:42.804Z,26.62
2018-07-30T02:07:10.541Z,26.62
2018-07-30T02:09:38.172Z,26.68
2018-07-30T02:12:05.761Z,26.68
2018-07-30T02:14:33.369Z,26.70
2018-07-30T02:17:01.076Z,26.72
2018-07-30T02:19:28.658Z,26.76
2018-07-30T02:21:56.251Z,26.67
2018-07-30T02:24:24.055Z,26.74
2018-07-30T02:26:51.651Z,26.74
2018-07-30T02:29:19.239Z,26.75
2018-07-30T02:31:46.861Z,26.75
2018-07-30T02:34:14.467Z,26.79
2018-07-30T02:36:42.430Z,26.80
2018-07-30T02:39:12.529Z,26.72
2018-07-30T02:41:40.473Z,26.71
2018-07-30T02:44:08.170Z,26.64
2018-07-30T02:46:35.797Z,26.70
2018-07-30T02:49:03.374Z,26.79
2018-07-30T02:51:31.060Z,26.78
2018-07-30T02:53:58.703Z,26.82
2018-07-30T02:56:26.292Z,26.75
2018-07-30T02:58:53.958Z,26.73
2018-07-30T03:01:21.539Z,26.71
2018-07-30T03:03:49.175Z,26.71
2018-07-30T03:06:16.844Z,26.68
2018-07-30T03:08:44.444Z,26.63
2018-07-30T03:11:12.042Z,26.52
2018-07-30T03:13:39.612Z,26.53
2018-07-30T03:16:07.547Z,26.42
2018-07-30T03:18:35.435Z,26.38
2018-07-30T03:21:03.319Z,26.33
2018-07-30T03:23:30.934Z,26.31
2018-07-30T03:25:58.507Z,26.34
2018-07-30T03:28:26.192Z,26.34
2018-07-30T03:30:53.811Z,26.38
2018-07-30T03:33:21.784Z,26.37
2018-07-30T03:35:49.344Z,26.31
2018-07-30T03:38:16.944Z,26.30
2018-07-30T03:40:44.612Z,26.28
2018-07-30T03:43:12.251Z,26.30
2018-07-30T03:45:39.887Z,26.39
2018-07-30T03:48:07.544Z,26.46
2018-07-30T03:50:35.139Z,26.49
2018-07-30T03:53:02.804Z,26.45
2018-07-30T03:55:30.439Z,26.40
2018-07-30T03:57:58.033Z,26.19
2018-07-30T04:00:25.736Z,26.14
2018-07-30T04:02:53.289Z,26.13
2018-07-30T04:05:20.871Z,26.16
2018-07-30T04:07:48.499Z,26.19
2018-07-30T04:10:16.122Z,26.19
2018-07-30T04:12:43.734Z,26.18
2018-07-30T04:15:11.340Z,26.16
2018-07-30T04:17:38.921Z,26.08
2018-07-30T04:20:06.567Z,26.01
2018-07-30T04:22:34.192Z,26.02
2018-07-30T04:25:01.793Z,26.14
2018-07-30T04:27:29.407Z,26.13
2018-07-30T04:29:57.055Z,26.14
2018-07-30T04:32:24.659Z,26.24
2018-07-30T04:34:52.265Z,26.22
2018-07-30T04:37:20.339Z,26.24
2018-07-30T04:39:47.996Z,26.24
2018-07-30T04:42:15.564Z,26.25
2018-07-30T04:44:43.223Z,26.24
2018-07-30T04:47:10.817Z,26.25
2018-07-30T04:49:39.079Z,26.27
2018-07-30T04:52:06.835Z,26.23
2018-07-30T04:54:34.458Z,26.19
2018-07-30T04:57:02.114Z,26.12
2018-07-30T04:59:29.795Z,26.09
2018-07-30T05:01:57.688Z,26.12
2018-07-30T05:04:25.264Z,26.13
2018-07-30T05:06:52.938Z,26.22
2018-07-30T05:09:20.571Z,26.29
2018-07-30T05:11:48.135Z,26.37
2018-07-30T05:14:15.764Z,26.44
2018-07-30T05:16:43.328Z,26.48
2018-07-30T05:19:10.898Z,26.59
2018-07-30T05:21:38.543Z,26.65
2018-07-30T05:24:06.164Z,26.72
2018-07-30T05:26:33.748Z,26.76
2018-07-30T05:29:01.369Z,26.81
2018-07-30T05:31:29.967Z,26.82
2018-07-30T05:33:57.584Z,26.80
2018-07-30T05:36:25.200Z,26.80
2018-07-30T05:38:52.787Z,26.84
2018-07-30T05:41:20.447Z,26.87
2018-07-30T05:43:48.099Z,26.90
2018-07-30T05:46:15.675Z,27.10
2018-07-30T05:48:43.266Z,27.25
2018-07-30T05:51:10.908Z,27.37
2018-07-30T05:53:38.523Z,27.55
2018-07-30T05:56:07.823Z,27.65
2018-07-30T05:58:35.506Z,27.79
2018-07-30T06:01:03.197Z,27.86
2018-07-30T06:03:30.813Z,27.92
2018-07-30T06:05:58.980Z,28.06
2018-07-30T06:08:26.564Z,28.19
2018-07-30T06:10:54.144Z,28.30
2018-07-30T06:13:21.898Z,28.34
2018-07-30T06:15:49.504Z,28.42
2018-07-30T06:18:17.107Z,28.59
2018-07-30T06:20:44.767Z,28.66
2018-07-30T06:23:12.400Z,28.74
2018-07-30T06:25:39.995Z,28.85
2018-07-30T06:28:07.667Z,28.96
2018-07-30T06:30:35.269Z,29.13
2018-07-30T06:33:02.873Z,29.16
2018-07-30T06:35:30.535Z,29.08
2018-07-30T06:37:58.105Z,29.26
2018-07-30T06:40:25.715Z,29.28
2018-07-30T06:42:53.333Z,29.34
2018-07-30T06:45:20.900Z,29.49
2018-07-30T06:47:48.590Z,29.63
2018-07-30T06:50:16.636Z,29.81
2018-07-30T06:52:44.350Z,29.94
2018-07-30T06:55:12.049Z,30.03
2018-07-30T06:57:39.819Z,30.22
2018-07-30T07:00:11.093Z,30.40
2018-07-30T07:02:39.337Z,30.51
2018-07-30T07:05:11.387Z,30.54
2018-07-30T07:07:39.510Z,30.67
2018-07-30T07:10:17.051Z,30.84
2018-07-30T07:12:45.012Z,30.98
2018-07-30T07:15:24.191Z,31.08
2018-07-30T07:17:54.457Z,31.29
2018-07-30T07:20:45.122Z,31.33
2018-07-30T07:23:12.987Z,31.53
2018-07-30T07:25:43.519Z,31.67
2018-07-30T07:28:13.524Z,31.74
2018-07-30T07:30:41.676Z,31.82
2018-07-30T07:33:10.844Z,31.94
2018-07-30T07:35:38.739Z,32.23
2018-07-30T07:38:06.441Z,32.44
2018-07-30T07:40:34.135Z,32.69
2018-07-30T07:43:01.824Z,32.93
2018-07-30T07:45:29.428Z,32.93
2018-07-30T07:47:57.040Z,33.05
2018-07-30T07:50:24.974Z,33.10
2018-07-30T07:52:52.529Z,33.20
2018-07-30T07:55:20.137Z,33.27
2018-07-30T07:57:47.797Z,33.41
2018-07-30T08:00:15.739Z,33.54
2018-07-30T08:02:43.316Z,33.64
2018-07-30T08:05:10.960Z,33.74
2018-07-30T08:07:38.577Z,33.87
2018-07-30T08:10:06.940Z,34.01
2018-07-30T08:12:34.864Z,34.07
2018-07-30T08:15:02.541Z,33.97
2018-07-30T08:17:30.563Z,34.12
2018-07-30T08:19:58.192Z,34.31
2018-07-30T08:22:25.833Z,34.43
2018-07-30T08:24:53.508Z,34.62
2018-07-30T08:27:21.177Z,34.79
2018-07-30T08:29:48.808Z,35.00
2018-07-30T08:32:16.451Z,35.20
2018-07-30T08:34:44.100Z,35.46
2018-07-30T08:37:11.723Z,35.73
2018-07-30T08:39:39.304Z,36.07
2018-07-30T08:42:07.006Z,36.49
2018-07-30T08:44:35.003Z,36.82
2018-07-30T08:47:02.716Z,37.12
2018-07-30T08:49:30.355Z,37.31
2018-07-30T08:52:01.675Z,37.58
2018-07-30T08:54:29.328Z,37.91
2018-07-30T08:56:57.881Z,38.16
2018-07-30T08:59:26.746Z,38.36
2018-07-30T09:01:56.129Z,38.48
2018-07-30T09:04:31.855Z,38.62
2018-07-30T09:07:07.076Z,38.70
2018-07-30T09:09:44.755Z,38.88
2018-07-30T09:12:23.327Z,39.05
2018-07-30T09:26:58.447Z,39.61
2018-07-30T09:29:58.658Z,39.58
2018-07-30T10:12:03.093Z,40.79
2018-07-30T10:14:35.667Z,40.70
2018-07-30T10:17:07.366Z,40.94
2018-07-30T10:19:38.139Z,41.04
2018-07-30T10:22:06.525Z,40.70
2018-07-30T10:24:34.290Z,40.92
2018-07-30T10:27:02.568Z,40.74
2018-07-30T10:29:31.738Z,40.87
2018-07-30T10:31:59.916Z,40.92
2018-07-30T10:34:27.858Z,40.74
2018-07-30T10:36:55.551Z,40.91
2018-07-30T10:39:23.196Z,41.18
2018-07-30T10:41:50.926Z,41.22
2018-07-30T10:44:18.549Z,41.44
2018-07-30T10:46:46.220Z,41.59
2018-07-30T10:49:13.906Z,41.69
2018-07-30T10:51:41.587Z,41.97
2018-07-30T10:54:09.164Z,42.23
2018-07-30T10:56:36.762Z,42.45
2018-07-30T10:59:04.363Z,42.60
2018-07-30T11:01:31.960Z,42.61
2018-07-30T11:04:00.692Z,42.56
2018-07-30T11:06:28.307Z,42.84
2018-07-30T11:08:55.910Z,43.16
2018-07-30T11:11:23.593Z,43.47
2018-07-30T11:13:51.244Z,43.74
2018-07-30T11:16:19.212Z,43.89
2018-07-30T11:18:46.935Z,43.99
2018-07-30T11:21:14.549Z,44.16
2018-07-30T11:23:42.206Z,44.10
2018-07-30T11:26:09.922Z,43.61
2018-07-30T11:28:37.535Z,43.93
2018-07-30T11:31:05.211Z,44.15
2018-07-30T11:33:32.897Z,44.21
2018-07-30T11:36:00.794Z,42.97
2018-07-30T11:38:28.633Z,43.80
2018-07-30T11:40:56.251Z,44.17
2018-07-30T11:43:23.828Z,44.28
2018-07-30T11:45:51.590Z,44.48
2018-07-30T11:48:20.577Z,44.70
2018-07-30T11:50:48.177Z,44.88
2018-07-30T11:53:15.841Z,45.25
2018-07-30T11:55:43.432Z,45.66
2018-07-30T11:58:11.113Z,45.91
2018-07-30T12:00:38.711Z,46.40
2018-07-30T12:03:06.464Z,46.42
2018-07-30T12:05:34.118Z,46.48
2018-07-30T12:08:01.723Z,46.05
2018-07-30T12:10:29.319Z,46.51
2018-07-30T12:12:56.908Z,46.77
2018-07-30T12:15:24.559Z,46.10
2018-07-30T12:17:52.217Z,46.70
2018-07-30T12:20:20.276Z,47.27
2018-07-30T12:22:47.835Z,47.75
2018-07-30T12:25:15.832Z,47.42
2018-07-30T12:27:43.966Z,47.66
2018-07-30T12:30:11.566Z,47.86
2018-07-30T12:32:39.507Z,47.74
2018-07-30T12:35:07.140Z,47.90
2018-07-30T12:37:34.829Z,47.87
2018-07-30T12:40:02.852Z,47.97
2018-07-30T12:42:30.644Z,47.47
2018-07-30T12:44:58.466Z,47.61
2018-07-30T12:47:26.143Z,47.07
2018-07-30T12:49:53.720Z,44.76
2018-07-30T12:52:21.309Z,43.39
2018-07-30T12:54:48.943Z,43.12
2018-07-30T12:57:16.539Z,44.82
2018-07-30T12:59:44.153Z,46.03
2018-07-30T13:02:11.775Z,46.67
2018-07-30T13:04:39.379Z,47.16
2018-07-30T13:07:06.976Z,47.78
2018-07-30T13:09:34.648Z,48.17
2018-07-30T13:12:02.241Z,48.07
2018-07-30T13:14:30.009Z,47.77
2018-07-30T13:16:57.720Z,45.71
2018-07-30T13:19:25.291Z,44.10
2018-07-30T13:21:52.908Z,42.88
2018-07-30T13:24:20.654Z,42.07
2018-07-30T13:26:48.394Z,41.30
2018-07-30T13:29:24.029Z,40.73
2018-07-30T13:31:51.672Z,40.30
2018-07-30T13:34:19.316Z,39.99
2018-07-30T13:36:46.959Z,39.75
2018-07-30T13:39:14.557Z,40.66
2018-07-30T13:41:42.996Z,40.40
2018-07-30T13:44:14.682Z,39.78
2018-07-30T13:46:42.524Z,39.44
2018-07-30T13:49:10.399Z,41.44
2018-07-30T13:51:39.493Z,43.11
2018-07-30T13:54:07.400Z,44.72
2018-07-30T13:56:34.989Z,45.70
2018-07-30T13:59:02.706Z,46.30
2018-07-30T14:01:32.841Z,46.86
2018-07-30T14:04:00.630Z,46.74
2018-07-30T14:06:28.709Z,44.69
2018-07-30T14:08:56.323Z,42.98
2018-07-30T14:11:23.982Z,41.97
2018-07-30T14:13:51.976Z,41.34
2018-07-30T14:16:19.601Z,41.29
2018-07-30T14:18:47.411Z,40.85
2018-07-30T14:21:15.088Z,40.33
2018-07-30T14:23:42.706Z,39.95
2018-07-30T14:26:10.424Z,40.94
2018-07-30T14:28:38.072Z,40.20
2018-07-30T14:31:05.821Z,40.36
2018-07-30T14:33:33.527Z,39.81
2018-07-30T14:36:01.218Z,39.39
2018-07-30T14:38:28.861Z,40.54
2018-07-30T14:40:56.509Z,40.80
2018-07-30T14:43:24.152Z,40.96
2018-07-30T14:45:51.743Z,39.95
2018-07-30T14:48:19.449Z,39.32
2018-07-30T14:50:47.071Z,39.03
2018-07-30T14:53:14.721Z,38.78
2018-07-30T14:55:42.388Z,38.86
2018-07-30T14:58:10.122Z,38.52
2018-07-30T15:00:37.748Z,38.10
2018-07-30T15:03:05.427Z,37.80
2018-07-30T15:05:33.071Z,37.58
2018-07-30T15:08:00.701Z,37.39
2018-07-30T15:10:28.482Z,37.27
2018-07-30T15:12:56.129Z,37.09
2018-07-30T15:15:23.780Z,36.95
2018-07-30T15:17:51.548Z,36.93
2018-07-30T15:20:19.215Z,36.84
2018-07-30T15:22:46.855Z,36.80
2018-07-30T15:25:14.592Z,36.76
2018-07-30T15:27:43.380Z,36.73
2018-07-30T15:30:11.611Z,36.66
2018-07-30T15:32:39.304Z,36.59
2018-07-30T15:35:07.024Z,36.51
2018-07-30T15:37:34.807Z,36.45
2018-07-30T15:40:02.476Z,36.40
2018-07-30T15:42:30.162Z,36.40
2018-07-30T15:44:58.119Z,36.40
2018-07-30T15:47:25.757Z,36.41
2018-07-30T15:49:53.367Z,36.29
2018-07-30T15:52:20.948Z,36.19
2018-07-30T15:54:48.599Z,36.12
2018-07-30T15:57:16.841Z,36.07
2018-07-30T15:59:44.966Z,36.09
2018-07-30T16:02:12.644Z,36.10
2018-07-30T16:04:40.281Z,36.11
2018-07-30T16:07:07.881Z,36.21
2018-07-30T16:09:36.398Z,36.23
2018-07-30T16:12:04.596Z,36.19
2018-07-30T16:14:32.426Z,36.25
2018-07-30T16:17:00.176Z,36.34
2018-07-30T16:19:27.815Z,36.43
2018-07-30T16:21:55.564Z,36.40
2018-07-30T16:24:23.723Z,36.38
2018-07-30T16:26:51.768Z,36.42
2018-07-30T16:29:19.704Z,36.38
2018-07-30T16:31:47.356Z,36.36
2018-07-30T16:34:15.003Z,36.35
2018-07-30T16:36:42.644Z,36.35
2018-07-30T16:39:11.076Z,36.30
2018-07-30T16:41:38.832Z,36.24
2018-07-30T16:44:06.938Z,36.07
2018-07-30T16:46:34.557Z,36.09
2018-07-30T16:49:05.380Z,35.92
2018-07-30T16:51:35.022Z,35.98
2018-07-30T16:54:03.952Z,36.06
2018-07-30T16:56:35.686Z,36.04
2018-07-30T16:59:05.569Z,35.97
2018-07-30T17:01:34.833Z,35.84
2018-07-30T17:04:03.899Z,35.66
2018-07-30T17:06:33.124Z,35.50
2018-07-30T17:09:04.208Z,35.49
2018-07-30T17:11:33.046Z,35.41
2018-07-30T17:14:02.568Z,35.35
2018-07-30T17:16:31.148Z,35.22
2018-07-30T17:19:00.148Z,35.14
2018-07-30T17:21:29.640Z,35.07
2018-07-30T17:23:58.528Z,34.95
2018-07-30T17:26:29.779Z,34.82
2018-07-30T17:28:58.555Z,34.78
2018-07-30T17:31:27.430Z,34.79
2018-07-30T17:33:55.664Z,34.72
2018-07-30T17:36:23.996Z,34.72
2018-07-30T17:38:53.377Z,34.54
2018-07-30T17:41:21.867Z,34.48
2018-07-30T17:43:50.487Z,34.36
2018-07-30T17:46:18.204Z,34.23
2018-07-30T17:48:45.812Z,34.15
2018-07-30T17:51:13.480Z,34.11
2018-07-30T17:53:41.149Z,34.06
2018-07-30T17:56:08.810Z,34.02
2018-07-30T17:58:36.463Z,33.90
2018-07-30T18:01:04.141Z,33.80
2018-07-30T18:03:31.916Z,33.73
2018-07-30T18:05:59.581Z,33.68
2018-07-30T18:08:27.219Z,33.69
2018-07-30T18:10:54.923Z,33.61
2018-07-30T18:13:22.543Z,33.52
2018-07-30T18:15:50.132Z,33.48
2018-07-30T18:18:17.719Z,33.50
2018-07-30T18:20:45.347Z,33.45
2018-07-30T18:23:13.011Z,33.41
2018-07-30T18:25:40.608Z,33.37
2018-07-30T18:28:08.227Z,33.32
2018-07-30T18:30:35.823Z,33.28
2018-07-30T18:33:03.437Z,33.23
2018-07-30T18:35:31.509Z,33.16
2018-07-30T18:37:59.088Z,33.09
2018-07-30T18:40:26.685Z,33.01
2018-07-30T18:42:54.436Z,32.90
2018-07-30T18:45:22.036Z,32.81
2018-07-30T18:47:49.636Z,32.70
2018-07-30T18:50:17.264Z,32.61
2018-07-30T18:52:44.836Z,32.51
2018-07-30T18:55:12.460Z,32.42
2018-07-30T18:57:40.165Z,32.32
2018-07-30T19:00:07.846Z,32.22
2018-07-30T19:02:35.490Z,32.16
2018-07-30T19:05:03.319Z,32.07
2018-07-30T19:07:30.965Z,32.01
2018-07-30T19:09:58.543Z,31.92
2018-07-30T19:12:26.244Z,31.80
2018-07-30T19:14:53.851Z,31.75
2018-07-30T19:17:21.504Z,31.64
2018-07-30T19:19:49.200Z,31.57
2018-07-30T19:22:16.881Z,31.49
2018-07-30T19:24:44.480Z,31.42
2018-07-30T19:27:12.094Z,31.34
2018-07-30T19:29:39.910Z,31.25
2018-07-30T19:32:07.893Z,31.21
2018-07-30T19:34:35.542Z,31.16
2018-07-30T19:37:03.148Z,31.10
2018-07-30T19:39:30.795Z,31.04
2018-07-30T19:41:58.444Z,30.96
2018-07-30T19:44:26.077Z,30.89
2018-07-30T19:46:53.668Z,30.80
2018-07-30T19:49:22.400Z,30.72
2018-07-30T19:51:50.062Z,30.68
2018-07-30T19:54:17.639Z,30.60
2018-07-30T19:56:45.283Z,30.57
2018-07-30T19:59:12.921Z,30.50
2018-07-30T20:01:40.553Z,30.44
2018-07-30T20:04:08.192Z,30.38
2018-07-30T20:06:35.875Z,30.35
2018-07-30T20:09:05.623Z,30.32
2018-07-30T20:11:33.275Z,30.26
2018-07-30T20:14:00.867Z,30.17
2018-07-30T20:16:28.987Z,30.11
2018-07-30T20:18:56.674Z,30.08
2018-07-30T20:21:24.460Z,30.02
2018-07-30T20:23:52.040Z,29.97
2018-07-30T20:26:19.815Z,29.91
2018-07-30T20:28:47.956Z,29.91
2018-07-30T20:31:21.279Z,29.85
2018-07-30T20:33:48.924Z,29.79
2018-07-30T20:36:16.583Z,29.74
2018-07-30T20:38:44.250Z,29.70
2018-07-30T20:41:11.936Z,29.71
2018-07-30T20:43:39.571Z,29.69
2018-07-30T20:46:07.362Z,29.64
2018-07-30T20:48:35.027Z,29.60
2018-07-30T20:51:02.652Z,29.59
2018-07-30T20:53:31.103Z,29.57
2018-07-30T20:55:59.978Z,29.54
2018-07-30T20:58:28.713Z,29.50
2018-07-30T21:00:56.322Z,29.48
2018-07-30T21:03:24.032Z,29.44
2018-07-30T21:05:51.952Z,29.42
2018-07-30T21:08:19.836Z,29.38
2018-07-30T21:10:47.559Z,29.31
2018-07-30T21:13:16.278Z,29.31
2018-07-30T21:15:43.911Z,29.34
2018-07-30T21:18:11.648Z,29.42
2018-07-30T21:20:39.296Z,29.48
2018-07-30T21:23:06.963Z,29.50
2018-07-30T21:25:34.582Z,29.51
2018-07-30T21:28:02.208Z,29.59
2018-07-30T21:30:29.939Z,29.64
2018-07-30T21:32:57.613Z,29.67
2018-07-30T21:35:25.219Z,29.64
2018-07-30T21:37:52.945Z,29.63
2018-07-30T21:40:20.620Z,29.58
2018-07-30T21:42:48.401Z,29.51
2018-07-30T21:45:16.041Z,29.46
2018-07-30T21:47:43.789Z,29.44
2018-07-30T21:50:12.541Z,29.45
2018-07-30T21:52:40.161Z,29.38
2018-07-30T21:55:07.778Z,29.35
2018-07-30T21:57:35.465Z,29.33
2018-07-30T22:00:03.276Z,29.29
2018-07-30T22:02:30.957Z,29.23
2018-07-30T22:04:58.572Z,29.20
2018-07-30T22:07:26.201Z,29.21
2018-07-30T22:09:54.500Z,29.18
2018-07-30T22:12:22.233Z,29.14
2018-07-30T22:14:49.860Z,29.06
2018-07-30T22:17:17.746Z,29.05
2018-07-30T22:19:46.015Z,29.02
2018-07-30T22:22:14.042Z,28.99
2018-07-30T22:24:41.708Z,28.97
2018-07-30T22:27:09.298Z,28.92
2018-07-30T22:29:36.958Z,28.85
2018-07-30T22:32:04.716Z,28.83
2018-07-30T22:34:32.392Z,28.76
2018-07-30T22:37:00.092Z,28.74
2018-07-30T22:39:27.691Z,28.76
2018-07-30T22:41:55.308Z,28.73
2018-07-30T22:44:23.012Z,28.69
2018-07-30T22:46:50.608Z,28.62
2018-07-30T22:49:18.233Z,28.58
2018-07-30T22:51:45.893Z,28.58
2018-07-30T22:54:13.609Z,28.53
2018-07-30T22:56:41.272Z,28.49
2018-07-30T22:59:08.879Z,28.52
2018-07-30T23:01:36.518Z,28.55
2018-07-30T23:04:04.178Z,28.50
2018-07-30T23:06:32.033Z,28.38
2018-07-30T23:08:59.855Z,28.39
2018-07-30T23:11:27.527Z,28.38
2018-07-30T23:13:55.208Z,28.43
2018-07-30T23:16:22.910Z,28.42
2018-07-30T23:18:50.494Z,28.49
2018-07-30T23:21:18.197Z,28.58
2018-07-30T23:23:45.779Z,28.62
2018-07-30T23:26:13.478Z,28.59
2018-07-30T23:28:41.164Z,28.63
2018-07-30T23:31:08.772Z,28.68
2018-07-30T23:33:36.550Z,28.71
2018-07-30T23:36:04.172Z,28.76
2018-07-30T23:38:31.812Z,28.72
2018-07-30T23:40:59.530Z,28.66
2018-07-30T23:43:27.333Z,28.55
2018-07-30T23:45:55.009Z,28.50
2018-07-30T23:48:22.619Z,28.47
2018-07-30T23:50:50.239Z,28.50
2018-07-30T23:53:17.864Z,28.53
2018-07-30T23:55:45.444Z,28.64
2018-07-30T23:58:13.179Z,28.65
